Time;durP1;ratioP1;P1;durP2;ratioP2;P2;SDS_P1;SDS_P2;PMS_P1;PMS_P2;Temp;Humidity;BMP_temperature;BMP_pressure;BME280_temperature;BME280_humidity;BME280_pressure;Samples;Min_cycle;Max_cycle;Signal;HPM_P1;HPM_P2
2022/06/10 00:01:48;;;;;;;7.30;3.53;;;;;;;;;;5047400;28;20561;-74
2022/06/10 00:04:14;;;;;;;7.20;2.97;;;;;;;;;;5039766;28;20174;-74
2022/06/10 00:06:39;;;;;;;11.00;3.57;;;;;;;;;;5037159;28;20259;-74
2022/06/10 00:09:04;;;;;;;15.17;4.80;;;;;;;;;;5041162;28;20649;-73
2022/06/10 00:11:29;;;;;;;13.63;4.47;;;;;;;;;;5052512;28;20272;-74
2022/06/10 00:13:54;;;;;;;12.60;4.73;;;;;;;;;;5049411;28;20184;-74
2022/06/10 00:16:20;;;;;;;18.73;4.47;;;;;;;;;;5044517;28;20679;-74
2022/06/10 00:18:45;;;;;;;14.57;4.10;;;;;;;;;;5042542;28;20178;-74
2022/06/10 00:21:12;;;;;;;11.10;5.07;;;;;;;;;;5042585;28;20177;-74
2022/06/10 00:23:37;;;;;;;18.00;4.90;;;;;;;;;;5029882;28;20807;-74
2022/06/10 00:26:03;;;;;;;9.30;4.47;;;;;;;;;;5044345;28;20212;-74
2022/06/10 00:28:28;;;;;;;12.37;4.73;;;;;;;;;;5039626;28;20234;-75
2022/06/10 00:30:53;;;;;;;12.57;5.97;;;;;;;;;;5048591;28;20582;-74
2022/06/10 00:33:19;;;;;;;16.03;5.50;;;;;;;;;;5045210;28;20177;-73
2022/06/10 00:35:44;;;;;;;14.10;5.23;;;;;;;;;;5048537;28;20209;-73
2022/06/10 00:38:09;;;;;;;15.73;5.50;;;;;;;;;;5036279;28;20198;-74
2022/06/10 00:40:36;;;;;;;12.80;5.07;;;;;;;;;;5044032;28;20280;-74
2022/06/10 00:43:01;;;;;;;15.03;5.13;;;;;;;;;;5044723;28;20182;-74
2022/06/10 00:45:45;;;;;;;11.57;4.93;;;;;;;;;;5051843;28;20288;-74
2022/06/10 00:48:13;;;;;;;11.57;5.57;;;;;;;;;;5048999;28;20228;-74
2022/06/10 00:50:38;;;;;;;15.40;5.23;;;;;;;;;;5040640;28;20190;-73
2022/06/10 00:53:05;;;;;;;11.40;4.50;;;;;;;;;;5040196;28;20594;-74
2022/06/10 00:55:30;;;;;;;13.37;4.40;;;;;;;;;;5038091;28;20198;-74
2022/06/10 00:58:28;;;;;;;11.33;4.27;;;;;;;;;;5041096;28;20243;-74
2022/06/10 01:00:53;;;;;;;12.07;4.28;;;;;;;;;;5028958;28;20212;-74
2022/06/10 01:03:19;;;;;;;12.43;3.88;;;;;;;;;;5047275;28;20559;-74
2022/06/10 01:05:44;;;;;;;10.38;4.13;;;;;;;;;;5051213;28;20244;-74
2022/06/10 01:08:12;;;;;;;10.68;3.95;;;;;;;;;;5048041;28;20719;-74
2022/06/10 01:10:57;;;;;;;10.00;4.10;;;;;;;;;;5044682;28;20201;-73
2022/06/10 01:13:35;;;;;;;9.82;3.92;;;;;;;;;;5033842;28;20656;-73
2022/06/10 01:16:07;;;;;;;12.85;5.20;;;;;;;;;;5044994;28;20675;-73
2022/06/10 01:18:44;;;;;;;8.75;3.72;;;;;;;;;;5048574;28;20193;-74
2022/06/10 01:21:21;;;;;;;15.45;5.30;;;;;;;;;;5046717;28;20188;-73
2022/06/10 01:23:46;;;;;;;16.58;5.47;;;;;;;;;;5045437;28;20272;-74
2022/06/10 01:26:21;;;;;;;9.30;4.00;;;;;;;;;;5052264;28;20273;-73
2022/06/10 01:29:05;;;;;;;10.88;4.22;;;;;;;;;;5046277;28;20457;-74
2022/06/10 01:31:46;;;;;;;12.43;5.47;;;;;;;;;;5032409;28;20654;-73
2022/06/10 01:34:26;;;;;;;14.45;4.75;;;;;;;;;;5034089;28;20845;-74
2022/06/10 01:36:54;;;;;;;10.35;4.07;;;;;;;;;;5044298;28;20197;-74
2022/06/10 01:39:28;;;;;;;10.15;3.17;;;;;;;;;;5049365;28;20196;-74
2022/06/10 01:42:00;;;;;;;6.93;3.67;;;;;;;;;;5047460;28;20179;-73
2022/06/10 01:44:44;;;;;;;12.75;3.80;;;;;;;;;;5045509;28;20193;-75
2022/06/10 01:47:09;;;;;;;9.63;3.75;;;;;;;;;;5050665;28;20193;-74
2022/06/10 01:49:41;;;;;;;9.95;3.63;;;;;;;;;;5033196;28;20249;-74
2022/06/10 01:52:13;;;;;;;11.00;3.65;;;;;;;;;;5036834;28;20405;-74
2022/06/10 01:54:38;;;;;;;10.05;3.00;;;;;;;;;;5042758;28;20328;-74
2022/06/10 01:57:07;;;;;;;12.23;3.20;;;;;;;;;;5051349;28;20703;-74
2022/06/10 01:59:43;;;;;;;10.52;3.90;;;;;;;;;;5047669;28;20579;-74
2022/06/10 02:02:12;;;;;;;6.65;3.58;;;;;;;;;;5041440;28;20208;-73
2022/06/10 02:04:43;;;;;;;9.68;3.15;;;;;;;;;;5045753;28;20190;-72
2022/06/10 02:07:21;;;;;;;9.77;3.03;;;;;;;;;;5041705;28;20225;-75
2022/06/10 02:09:49;;;;;;;11.20;3.10;;;;;;;;;;5044031;28;20188;-73
2022/06/10 02:12:30;;;;;;;9.40;3.58;;;;;;;;;;5042361;28;20182;-74
2022/06/10 02:15:00;;;;;;;8.70;3.67;;;;;;;;;;5043680;28;20204;-73
2022/06/10 02:17:30;;;;;;;8.32;2.60;;;;;;;;;;5047046;28;20263;-74
2022/06/10 02:19:57;;;;;;;10.45;3.22;;;;;;;;;;5050542;28;20224;-73
2022/06/10 02:22:25;;;;;;;7.70;2.80;;;;;;;;;;5049404;28;20229;-74
2022/06/10 02:24:52;;;;;;;10.38;3.08;;;;;;;;;;5038084;28;20190;-74
2022/06/10 02:27:19;;;;;;;12.07;3.42;;;;;;;;;;5041731;28;20205;-73
2022/06/10 02:30:00;;;;;;;11.60;2.97;;;;;;;;;;5039263;28;20181;-74
2022/06/10 02:32:25;;;;;;;9.98;2.80;;;;;;;;;;5049216;28;20752;-72
2022/06/10 02:34:50;;;;;;;8.88;2.80;;;;;;;;;;5045867;28;20209;-72
2022/06/10 02:37:31;;;;;;;7.93;2.67;;;;;;;;;;5041917;28;20260;-74
2022/06/10 02:40:01;;;;;;;7.55;3.22;;;;;;;;;;5048454;28;20238;-74
2022/06/10 02:42:42;;;;;;;11.60;3.08;;;;;;;;;;5037470;28;20182;-74
2022/06/10 02:45:13;;;;;;;6.57;2.95;;;;;;;;;;5036456;28;20205;-74
2022/06/10 02:47:40;;;;;;;8.75;3.83;;;;;;;;;;5048271;28;20194;-74
2022/06/10 02:50:06;;;;;;;11.80;2.72;;;;;;;;;;5041951;28;20261;-74
2022/06/10 02:52:33;;;;;;;7.95;3.13;;;;;;;;;;5048732;28;20188;-74
2022/06/10 02:54:58;;;;;;;12.27;2.92;;;;;;;;;;5047029;28;20195;-74
2022/06/10 03:01:11;;;;;;;8.40;2.83;;;;;;;;;;5046575;28;20780;-74
2022/06/10 03:03:00;;;;;;;9.02;3.13;;;;;;;;;;5041937;28;20195;-74
2022/06/10 03:05:40;;;;;;;8.73;3.33;;;;;;;;;;5046720;28;20201;-74
2022/06/10 03:08:23;;;;;;;8.70;3.17;;;;;;;;;;5030094;28;20251;-74
2022/06/10 03:10:54;;;;;;;8.18;2.70;;;;;;;;;;5043021;28;20182;-72
2022/06/10 03:13:34;;;;;;;11.23;2.80;;;;;;;;;;5045193;28;20177;-74
2022/06/10 03:16:20;;;;;;;6.50;2.60;;;;;;;;;;5046385;28;20231;-74
2022/06/10 03:18:57;;;;;;;7.97;2.70;;;;;;;;;;5033341;28;20228;-74
2022/06/10 03:21:41;;;;;;;7.18;2.85;;;;;;;;;;5046931;28;20177;-73
2022/06/10 03:24:08;;;;;;;9.90;3.10;;;;;;;;;;5043568;28;20178;-73
2022/06/10 03:26:36;;;;;;;8.43;2.95;;;;;;;;;;5045318;28;20202;-73
2022/06/10 03:29:08;;;;;;;9.43;2.55;;;;;;;;;;5044896;28;20655;-73
2022/06/10 03:31:36;;;;;;;7.32;2.95;;;;;;;;;;5046138;28;20170;-74
2022/06/10 03:34:13;;;;;;;8.00;2.85;;;;;;;;;;5043776;28;20178;-74
2022/06/10 03:36:38;;;;;;;7.00;2.30;;;;;;;;;;5041694;28;20936;-72
2022/06/10 03:39:05;;;;;;;9.75;3.25;;;;;;;;;;5031829;28;20185;-75
2022/06/10 03:41:32;;;;;;;10.63;3.33;;;;;;;;;;5045763;28;20227;-74
2022/06/10 03:43:58;;;;;;;9.18;2.40;;;;;;;;;;5052506;28;20189;-74
2022/06/10 03:46:24;;;;;;;9.05;2.80;;;;;;;;;;5053808;28;20197;-74
2022/06/10 03:48:51;;;;;;;5.85;2.55;;;;;;;;;;5048460;28;20208;-73
2022/06/10 03:51:17;;;;;;;6.50;2.45;;;;;;;;;;5047732;28;20652;-74
2022/06/10 03:53:43;;;;;;;13.52;3.50;;;;;;;;;;5043239;28;20185;-73
2022/06/10 03:56:08;;;;;;;6.07;2.63;;;;;;;;;;5036956;28;20205;-74
2022/06/10 03:58:34;;;;;;;11.70;3.28;;;;;;;;;;5045323;28;20205;-73
2022/06/10 04:00:59;;;;;;;7.03;2.90;;;;;;;;;;5045069;28;20346;-73
2022/06/10 04:03:25;;;;;;;9.15;2.90;;;;;;;;;;5041517;28;20209;-74
2022/06/10 04:05:50;;;;;;;8.77;3.00;;;;;;;;;;5044322;28;20197;-73
2022/06/10 04:08:15;;;;;;;7.28;2.65;;;;;;;;;;5040273;28;20202;-73
2022/06/10 04:10:40;;;;;;;8.80;2.80;;;;;;;;;;5053766;28;20181;-73
2022/06/10 04:13:07;;;;;;;7.50;2.67;;;;;;;;;;5035295;28;20174;-73
2022/06/10 04:15:32;;;;;;;7.15;2.80;;;;;;;;;;5046791;28;20225;-73
2022/06/10 04:17:58;;;;;;;10.82;3.60;;;;;;;;;;5045189;28;20221;-74
2022/06/10 04:20:23;;;;;;;8.50;3.38;;;;;;;;;;5046461;28;20178;-73
2022/06/10 04:22:48;;;;;;;12.55;3.33;;;;;;;;;;5045605;28;20189;-74
2022/06/10 04:25:14;;;;;;;6.93;3.47;;;;;;;;;;5054010;28;20198;-73
2022/06/10 04:27:39;;;;;;;11.98;3.20;;;;;;;;;;5046533;28;20205;-73
2022/06/10 04:30:05;;;;;;;8.07;2.70;;;;;;;;;;5036377;28;20181;-73
2022/06/10 04:32:30;;;;;;;5.78;2.88;;;;;;;;;;5042953;28;20182;-73
2022/06/10 04:34:56;;;;;;;4.53;2.70;;;;;;;;;;5047977;28;20259;-74
2022/06/10 04:37:21;;;;;;;8.00;2.90;;;;;;;;;;5043332;28;20540;-74
2022/06/10 04:39:46;;;;;;;8.80;3.03;;;;;;;;;;5044165;28;20592;-74
2022/06/10 04:42:11;;;;;;;11.55;3.92;;;;;;;;;;5043787;28;20177;-72
2022/06/10 04:44:37;;;;;;;8.30;3.63;;;;;;;;;;5050406;28;20601;-74
2022/06/10 04:47:02;;;;;;;8.55;3.20;;;;;;;;;;5045631;28;20703;-75
2022/06/10 04:49:29;;;;;;;10.90;2.88;;;;;;;;;;5047813;28;20178;-75
2022/06/10 04:51:55;;;;;;;7.28;2.65;;;;;;;;;;5051179;28;20693;-72
2022/06/10 04:54:20;;;;;;;11.75;3.20;;;;;;;;;;5048881;28;20192;-74
2022/06/10 04:56:45;;;;;;;7.32;2.58;;;;;;;;;;5053034;28;20194;-74
2022/06/10 04:59:10;;;;;;;10.20;2.83;;;;;;;;;;5050730;28;20184;-74
2022/06/10 05:01:36;;;;;;;5.35;2.67;;;;;;;;;;5045743;28;20186;-73
2022/06/10 05:04:01;;;;;;;9.15;2.72;;;;;;;;;;5042540;28;20531;-74
2022/06/10 05:06:26;;;;;;;7.45;3.08;;;;;;;;;;5033838;28;20289;-73
2022/06/10 05:08:51;;;;;;;11.35;3.35;;;;;;;;;;5043763;28;20576;-73
2022/06/10 05:11:17;;;;;;;12.18;2.95;;;;;;;;;;5041555;28;20222;-73
2022/06/10 05:13:42;;;;;;;6.25;2.67;;;;;;;;;;5047066;28;20269;-74
2022/06/10 05:16:07;;;;;;;13.43;3.55;;;;;;;;;;5052684;28;20566;-74
2022/06/10 05:18:33;;;;;;;8.23;2.40;;;;;;;;;;5048059;28;20178;-73
2022/06/10 05:20:58;;;;;;;9.55;3.80;;;;;;;;;;5051702;28;20189;-73
2022/06/10 05:23:24;;;;;;;7.57;2.63;;;;;;;;;;5040101;28;20652;-74
2022/06/10 05:25:50;;;;;;;8.93;3.25;;;;;;;;;;5047718;28;20684;-72
2022/06/10 05:28:16;;;;;;;5.75;2.72;;;;;;;;;;5045526;28;20212;-73
2022/06/10 05:30:41;;;;;;;6.80;2.53;;;;;;;;;;5053472;28;20244;-74
2022/06/10 05:33:08;;;;;;;7.68;2.88;;;;;;;;;;5039994;28;20174;-72
2022/06/10 05:35:33;;;;;;;7.72;2.67;;;;;;;;;;5048992;28;20228;-73
2022/06/10 05:37:59;;;;;;;11.52;2.63;;;;;;;;;;5035099;28;20190;-73
2022/06/10 05:40:25;;;;;;;7.28;3.08;;;;;;;;;;5041384;28;20685;-73
2022/06/10 05:42:51;;;;;;;7.82;2.80;;;;;;;;;;5041412;28;20278;-74
2022/06/10 05:45:17;;;;;;;7.70;2.88;;;;;;;;;;5048065;28;20280;-71
2022/06/10 05:47:43;;;;;;;9.32;2.25;;;;;;;;;;5043101;28;20196;-71
2022/06/10 05:50:11;;;;;;;5.25;2.30;;;;;;;;;;5052322;28;20181;-74
2022/06/10 05:52:36;;;;;;;7.95;3.35;;;;;;;;;;5048325;28;20166;-71
2022/06/10 05:55:04;;;;;;;9.02;2.50;;;;;;;;;;5051758;28;20201;-73
2022/06/10 05:57:30;;;;;;;8.25;2.78;;;;;;;;;;5034033;28;20186;-74
2022/06/10 05:59:57;;;;;;;9.25;3.03;;;;;;;;;;5038364;28;20182;-73
2022/06/10 06:02:22;;;;;;;6.72;2.28;;;;;;;;;;5041021;28;20193;-73
2022/06/10 06:04:48;;;;;;;7.35;2.38;;;;;;;;;;5032847;28;20186;-71
2022/06/10 06:07:19;;;;;;;11.05;3.53;;;;;;;;;;5044389;28;20202;-73
2022/06/10 06:09:45;;;;;;;12.05;4.50;;;;;;;;;;5047882;28;20182;-71
2022/06/10 06:12:10;;;;;;;11.38;3.30;;;;;;;;;;5044304;28;20201;-72
2022/06/10 06:14:35;;;;;;;8.70;2.65;;;;;;;;;;5035971;28;20530;-71
2022/06/10 06:17:02;;;;;;;8.07;2.42;;;;;;;;;;5041860;28;20193;-72
2022/06/10 06:19:28;;;;;;;11.23;2.65;;;;;;;;;;5045520;28;20215;-71
2022/06/10 06:21:53;;;;;;;9.32;2.80;;;;;;;;;;5044561;28;20194;-73
2022/06/10 06:24:19;;;;;;;8.13;3.00;;;;;;;;;;5045327;28;20231;-73
2022/06/10 06:26:44;;;;;;;10.68;3.58;;;;;;;;;;5051798;28;20702;-71
2022/06/10 06:29:09;;;;;;;7.22;3.40;;;;;;;;;;5046498;28;20256;-72
2022/06/10 06:31:35;;;;;;;6.90;2.95;;;;;;;;;;5038226;28;20582;-72
2022/06/10 06:34:00;;;;;;;13.25;4.00;;;;;;;;;;5038284;28;20180;-72
2022/06/10 06:36:26;;;;;;;7.38;2.78;;;;;;;;;;5043545;28;20208;-72
2022/06/10 06:38:51;;;;;;;13.63;2.95;;;;;;;;;;5036568;28;20178;-72
2022/06/10 06:41:17;;;;;;;14.02;3.05;;;;;;;;;;5041227;28;20667;-73
2022/06/10 06:43:43;;;;;;;12.45;3.35;;;;;;;;;;5040449;28;20185;-72
2022/06/10 06:46:12;;;;;;;7.15;3.10;;;;;;;;;;5040716;28;20201;-72
2022/06/10 06:48:37;;;;;;;11.73;4.07;;;;;;;;;;5044045;28;20213;-72
2022/06/10 06:51:02;;;;;;;8.20;3.83;;;;;;;;;;5031915;28;20667;-72
2022/06/10 06:53:28;;;;;;;9.30;3.50;;;;;;;;;;5044377;28;20188;-72
2022/06/10 06:55:53;;;;;;;8.68;3.17;;;;;;;;;;5046816;28;20198;-72
2022/06/10 06:58:18;;;;;;;5.90;2.80;;;;;;;;;;5043243;28;20181;-72
2022/06/10 07:00:44;;;;;;;10.40;2.75;;;;;;;;;;5039791;28;20559;-72
2022/06/10 07:03:09;;;;;;;7.25;2.35;;;;;;;;;;5038606;28;20188;-72
2022/06/10 07:05:35;;;;;;;9.43;2.63;;;;;;;;;;5044720;28;20201;-72
2022/06/10 07:08:01;;;;;;;9.15;3.30;;;;;;;;;;5042012;28;20756;-72
2022/06/10 07:10:26;;;;;;;10.60;3.05;;;;;;;;;;5047427;28;20264;-72
2022/06/10 07:12:51;;;;;;;9.25;2.92;;;;;;;;;;5045291;28;20231;-72
2022/06/10 07:15:17;;;;;;;6.72;2.53;;;;;;;;;;5039920;28;20276;-72
2022/06/10 07:17:43;;;;;;;7.38;2.78;;;;;;;;;;5036896;28;20193;-72
2022/06/10 07:20:10;;;;;;;10.90;2.78;;;;;;;;;;5030880;28;20177;-72
2022/06/10 07:22:35;;;;;;;9.35;3.63;;;;;;;;;;5033224;28;20260;-71
2022/06/10 07:25:01;;;;;;;5.68;2.80;;;;;;;;;;5042744;28;20276;-71
2022/06/10 07:27:26;;;;;;;9.88;3.42;;;;;;;;;;5042476;28;20198;-72
2022/06/10 07:29:51;;;;;;;9.15;3.35;;;;;;;;;;5031501;28;20171;-72
2022/06/10 07:32:17;;;;;;;8.70;3.00;;;;;;;;;;5038150;28;20486;-72
2022/06/10 07:34:42;;;;;;;11.10;3.78;;;;;;;;;;5039139;28;20174;-71
2022/06/10 07:37:07;;;;;;;8.73;3.67;;;;;;;;;;5034063;28;20177;-72
2022/06/10 07:39:33;;;;;;;7.38;3.00;;;;;;;;;;5034140;28;20297;-72
2022/06/10 07:42:00;;;;;;;7.78;3.42;;;;;;;;;;5042930;28;20682;-72
2022/06/10 07:44:27;;;;;;;11.98;3.92;;;;;;;;;;5039403;28;20182;-72
2022/06/10 07:46:53;;;;;;;9.73;2.78;;;;;;;;;;5031603;28;20638;-72
2022/06/10 07:49:19;;;;;;;9.20;3.10;;;;;;;;;;5028727;28;20205;-71
2022/06/10 07:51:46;;;;;;;10.23;2.85;;;;;;;;;;5042800;28;20213;-71
2022/06/10 07:54:11;;;;;;;8.40;3.15;;;;;;;;;;5053612;28;20175;-72
2022/06/10 07:56:37;;;;;;;11.82;3.40;;;;;;;;;;5046994;28;20242;-72
2022/06/10 07:59:02;;;;;;;9.75;3.65;;;;;;;;;;5045521;28;20194;-72
2022/06/10 08:01:29;;;;;;;7.70;3.47;;;;;;;;;;5041769;28;20567;-72
2022/06/10 08:03:54;;;;;;;9.70;2.92;;;;;;;;;;5046290;28;20201;-72
2022/06/10 08:06:20;;;;;;;8.30;2.53;;;;;;;;;;5017525;28;20210;-72
2022/06/10 08:08:45;;;;;;;6.05;3.10;;;;;;;;;;5039316;28;20744;-71
2022/06/10 08:11:11;;;;;;;9.23;2.70;;;;;;;;;;5034036;28;20276;-72
2022/06/10 08:13:36;;;;;;;6.45;2.92;;;;;;;;;;5032277;28;20186;-71
2022/06/10 08:16:01;;;;;;;7.80;3.13;;;;;;;;;;5048593;28;20196;-71
2022/06/10 08:18:30;;;;;;;10.18;4.28;;;;;;;;;;5042632;28;20193;-70
2022/06/10 08:23:41;;;;;;;5.88;2.88;;;;;;;;;;5024106;28;20412;-71
2022/06/10 08:26:07;;;;;;;9.10;3.13;;;;;;;;;;5042086;28;20201;-71
2022/06/10 08:28:32;;;;;;;7.72;2.65;;;;;;;;;;5024362;28;20209;-72
2022/06/10 08:30:57;;;;;;;7.18;2.45;;;;;;;;;;5025424;28;20192;-72
2022/06/10 08:33:23;;;;;;;6.93;2.38;;;;;;;;;;5031080;28;20188;-71
2022/06/10 08:35:48;;;;;;;11.27;2.80;;;;;;;;;;5024264;28;20302;-71
2022/06/10 08:38:15;;;;;;;6.03;2.72;;;;;;;;;;5022818;28;21506;-71
2022/06/10 08:40:44;;;;;;;7.78;2.30;;;;;;;;;;5031419;28;20264;-71
2022/06/10 08:43:28;;;;;;;8.98;2.45;;;;;;;;;;5023226;28;20185;-71
2022/06/10 08:45:56;;;;;;;11.27;3.40;;;;;;;;;;5028940;28;20198;-71
2022/06/10 08:48:21;;;;;;;10.73;3.15;;;;;;;;;;5026208;28;20198;-71
2022/06/10 08:50:53;;;;;;;9.60;2.97;;;;;;;;;;5026790;28;20186;-71
2022/06/10 08:53:41;;;;;;;7.68;2.78;;;;;;;;;;5022361;28;20629;-71
2022/06/10 08:56:12;;;;;;;8.18;2.50;;;;;;;;;;5039113;28;20224;-72
2022/06/10 08:58:56;;;;;;;6.50;2.55;;;;;;;;;;5025907;28;20197;-71
2022/06/10 09:01:22;;;;;;;6.72;3.42;;;;;;;;;;5025223;28;20659;-71
2022/06/10 09:04:00;;;;;;;7.25;2.72;;;;;;;;;;5028182;28;20232;-71
2022/06/10 09:06:31;;;;;;;7.20;2.70;;;;;;;;;;5021154;28;20332;-70
2022/06/10 09:08:59;;;;;;;11.27;3.45;;;;;;;;;;5037805;28;20292;-71
2022/06/10 09:11:30;;;;;;;8.18;2.72;;;;;;;;;;5025217;28;20394;-71
2022/06/10 09:14:09;;;;;;;11.05;4.15;;;;;;;;;;5032331;28;20178;-71
2022/06/10 09:16:40;;;;;;;7.18;2.85;;;;;;;;;;5030766;28;20575;-70
2022/06/10 09:19:24;;;;;;;7.95;3.22;;;;;;;;;;5026511;28;20217;-71
2022/06/10 09:21:59;;;;;;;5.50;2.83;;;;;;;;;;5026018;28;20173;-70
2022/06/10 09:24:27;;;;;;;10.98;3.42;;;;;;;;;;5021863;28;20173;-70
2022/06/10 09:26:56;;;;;;;9.20;2.90;;;;;;;;;;5022890;28;20239;-71
2022/06/10 09:29:21;;;;;;;6.47;2.85;;;;;;;;;;5027501;28;20189;-70
2022/06/10 09:31:58;;;;;;;7.20;3.17;;;;;;;;;;5023748;28;20181;-71
2022/06/10 09:34:49;;;;;;;8.07;2.70;;;;;;;;;;5024718;28;21014;-70
2022/06/10 09:37:17;;;;;;;9.20;2.97;;;;;;;;;;5020568;28;20313;-70
2022/06/10 09:42:52;;;;;;;7.35;3.20;;;;;;;;;;5024850;28;20193;-71
2022/06/10 09:45:43;;;;;;;7.70;2.90;;;;;;;;;;5025420;28;20276;-71
2022/06/10 09:48:09;;;;;;;6.47;2.83;;;;;;;;;;5006003;28;20276;-71
2022/06/10 09:50:47;;;;;;;9.35;2.90;;;;;;;;;;5027595;28;20170;-71
2022/06/10 09:53:12;;;;;;;8.38;2.90;;;;;;;;;;5027722;28;20594;-70
2022/06/10 09:55:53;;;;;;;8.38;2.90;;;;;;;;;;5020311;28;20198;-71
2022/06/10 09:58:24;;;;;;;8.35;2.60;;;;;;;;;;5025244;28;20258;-70
2022/06/10 10:01:08;;;;;;;4.07;2.10;;;;;;;;;;5023072;28;20599;-70
2022/06/10 10:03:39;;;;;;;5.78;1.90;;;;;;;;;;5021971;28;20253;-71
2022/06/10 10:06:23;;;;;;;5.90;2.25;;;;;;;;;;5026895;28;20268;-71
2022/06/10 10:09:03;;;;;;;4.95;2.47;;;;;;;;;;5021887;28;20618;-70
2022/06/10 10:11:34;;;;;;;4.68;2.13;;;;;;;;;;5027794;28;20201;-71
2022/06/10 10:14:21;;;;;;;7.88;1.95;;;;;;;;;;5046263;28;20204;-71
2022/06/10 10:16:57;;;;;;;5.38;1.33;;;;;;;;;;5057669;28;20205;-71
2022/06/10 10:19:22;;;;;;;3.28;1.58;;;;;;;;;;5037396;28;20900;-71
2022/06/10 10:21:50;;;;;;;6.13;2.33;;;;;;;;;;5024035;28;20197;-70
2022/06/10 10:24:20;;;;;;;8.02;2.40;;;;;;;;;;5023965;28;20554;-71
2022/06/10 10:26:46;;;;;;;4.88;2.58;;;;;;;;;;5022598;28;20220;-70
2022/06/10 10:29:18;;;;;;;6.53;2.03;;;;;;;;;;5030034;28;20217;-70
2022/06/10 10:32:03;;;;;;;6.03;2.05;;;;;;;;;;5024181;28;20185;-71
2022/06/10 10:34:36;;;;;;;3.45;1.50;;;;;;;;;;5020872;28;20239;-71
2022/06/10 10:37:02;;;;;;;6.03;1.83;;;;;;;;;;5023941;28;20555;-71
2022/06/10 10:39:32;;;;;;;3.55;1.80;;;;;;;;;;5026277;28;20182;-71
2022/06/10 10:42:00;;;;;;;5.90;1.77;;;;;;;;;;5015976;28;20182;-70
2022/06/10 10:44:31;;;;;;;4.75;1.67;;;;;;;;;;5021785;28;20668;-71
2022/06/10 10:47:02;;;;;;;2.63;1.50;;;;;;;;;;5027840;28;20205;-71
2022/06/10 10:49:32;;;;;;;6.07;1.98;;;;;;;;;;5020205;28;20562;-70
2022/06/10 10:51:57;;;;;;;5.32;2.13;;;;;;;;;;5022093;28;20270;-70
2022/06/10 10:54:26;;;;;;;3.67;1.38;;;;;;;;;;5024843;28;20535;-71
2022/06/10 10:56:52;;;;;;;2.95;1.45;;;;;;;;;;5022886;28;20210;-71
2022/06/10 10:59:28;;;;;;;3.15;1.48;;;;;;;;;;5024367;28;20244;-71
2022/06/10 11:01:54;;;;;;;4.97;1.42;;;;;;;;;;5021305;28;20236;-71
2022/06/10 11:04:26;;;;;;;2.65;1.35;;;;;;;;;;5039472;28;20672;-70
2022/06/10 11:07:12;;;;;;;5.38;1.95;;;;;;;;;;5022044;28;20205;-71
2022/06/10 11:09:51;;;;;;;3.83;1.50;;;;;;;;;;5035321;28;20225;-71
2022/06/10 11:12:21;;;;;;;5.47;1.80;;;;;;;;;;5040789;28;20706;-72
2022/06/10 11:14:48;;;;;;;2.72;1.55;;;;;;;;;;5035724;28;20185;-71
2022/06/10 11:17:15;;;;;;;2.65;1.15;;;;;;;;;;5039873;28;20178;-70
2022/06/10 11:19:42;;;;;;;4.30;1.50;;;;;;;;;;5032138;28;20190;-72
2022/06/10 11:22:10;;;;;;;3.70;1.50;;;;;;;;;;5021721;28;20189;-71
2022/06/10 11:24:43;;;;;;;3.65;1.77;;;;;;;;;;5022880;28;20181;-71
2022/06/10 11:27:23;;;;;;;2.17;1.50;;;;;;;;;;5021216;28;20276;-70
2022/06/10 11:30:03;;;;;;;6.05;1.83;;;;;;;;;;5020587;28;20205;-71
2022/06/10 11:32:32;;;;;;;6.50;2.08;;;;;;;;;;5021769;28;20212;-71
2022/06/10 11:34:59;;;;;;;3.05;1.90;;;;;;;;;;5020613;28;20577;-72
2022/06/10 11:37:32;;;;;;;4.68;2.00;;;;;;;;;;5022289;28;20336;-72
2022/06/10 11:40:02;;;;;;;5.63;2.70;;;;;;;;;;5022782;28;20206;-72
2022/06/10 11:42:31;;;;;;;4.63;2.28;;;;;;;;;;5022884;28;20189;-72
2022/06/10 11:45:07;;;;;;;3.72;2.47;;;;;;;;;;5020754;28;20282;-72
2022/06/10 11:47:39;;;;;;;3.10;2.47;;;;;;;;;;5021455;28;20691;-72
2022/06/10 11:50:09;;;;;;;4.63;2.35;;;;;;;;;;5022460;28;20243;-72
2022/06/10 11:52:44;;;;;;;4.85;2.40;;;;;;;;;;5025247;28;20182;-72
2022/06/10 11:55:12;;;;;;;4.07;2.70;;;;;;;;;;5022409;28;20259;-73
2022/06/10 12:00:27;;;;;;;6.07;2.60;;;;;;;;;;5024455;28;20900;-72
2022/06/10 12:02:56;;;;;;;4.65;2.50;;;;;;;;;;5027601;28;20273;-72
2022/06/10 12:05:33;;;;;;;5.13;2.22;;;;;;;;;;5023735;28;20201;-72
2022/06/10 12:08:15;;;;;;;5.32;2.55;;;;;;;;;;5027049;28;20198;-72
2022/06/10 12:10:47;;;;;;;4.72;2.53;;;;;;;;;;5025385;28;20193;-72
2022/06/10 12:13:13;;;;;;;5.75;2.50;;;;;;;;;;5031497;28;20261;-71
2022/06/10 12:15:41;;;;;;;4.85;2.53;;;;;;;;;;5030810;28;21034;-72
2022/06/10 12:18:09;;;;;;;7.25;2.65;;;;;;;;;;5021949;28;20274;-72
2022/06/10 12:20:43;;;;;;;5.88;2.58;;;;;;;;;;5027815;28;20193;-71
2022/06/10 12:23:19;;;;;;;7.45;3.47;;;;;;;;;;5025553;28;20201;-72
2022/06/10 12:25:50;;;;;;;5.72;2.83;;;;;;;;;;5027715;28;20216;-72
2022/06/10 12:28:21;;;;;;;4.05;2.60;;;;;;;;;;5022377;28;20287;-71
2022/06/10 12:30:48;;;;;;;4.05;2.40;;;;;;;;;;5023009;28;20887;-72
2022/06/10 12:33:23;;;;;;;7.15;3.47;;;;;;;;;;5022441;28;20652;-72
2022/06/10 12:35:49;;;;;;;4.25;2.65;;;;;;;;;;5023375;28;20209;-72
2022/06/10 12:38:17;;;;;;;6.35;3.05;;;;;;;;;;5038164;28;20260;-71
2022/06/10 12:40:45;;;;;;;10.48;2.63;;;;;;;;;;5031436;28;20735;-72
2022/06/10 12:43:26;;;;;;;5.38;2.70;;;;;;;;;;5026206;28;20190;-71
2022/06/10 12:45:53;;;;;;;5.68;2.55;;;;;;;;;;5025137;28;20193;-72
2022/06/10 12:48:21;;;;;;;5.05;2.28;;;;;;;;;;5025470;28;20228;-72
2022/06/10 12:51:02;;;;;;;3.85;1.88;;;;;;;;;;5024745;28;20484;-72
2022/06/10 12:53:47;;;;;;;4.70;1.98;;;;;;;;;;5026503;28;20737;-72
2022/06/10 12:56:26;;;;;;;4.93;2.15;;;;;;;;;;5025439;28;20331;-72
2022/06/10 12:59:04;;;;;;;2.75;1.83;;;;;;;;;;5026934;28;20190;-72
2022/06/10 13:01:29;;;;;;;3.20;1.80;;;;;;;;;;5024895;28;20197;-72
2022/06/10 13:03:58;;;;;;;4.25;1.48;;;;;;;;;;5021998;28;20604;-72
2022/06/10 13:06:28;;;;;;;4.03;1.77;;;;;;;;;;5023615;28;20702;-72
2022/06/10 13:08:55;;;;;;;3.42;1.85;;;;;;;;;;5024712;28;20303;-72
2022/06/10 13:11:50;;;;;;;6.07;2.03;;;;;;;;;;5024602;28;21521;-72
2022/06/10 13:14:30;;;;;;;4.10;1.95;;;;;;;;;;5016323;28;20579;-72
2022/06/10 13:16:58;;;;;;;3.08;1.88;;;;;;;;;;5025801;28;20202;-72
2022/06/10 13:19:39;;;;;;;4.47;2.13;;;;;;;;;;5026136;28;20225;-72
2022/06/10 13:22:19;;;;;;;4.65;2.35;;;;;;;;;;5023682;28;20182;-72
2022/06/10 13:24:53;;;;;;;4.22;2.40;;;;;;;;;;5026679;28;20296;-72
2022/06/10 13:27:27;;;;;;;6.30;3.35;;;;;;;;;;5024416;28;20209;-72
2022/06/10 13:29:54;;;;;;;4.10;2.47;;;;;;;;;;5024073;28;20180;-72
2022/06/10 13:32:19;;;;;;;3.58;2.25;;;;;;;;;;5023980;28;20269;-72
2022/06/10 13:34:52;;;;;;;4.30;2.33;;;;;;;;;;5022820;28;20662;-72
2022/06/10 13:37:20;;;;;;;6.00;2.08;;;;;;;;;;5024278;28;20194;-72
2022/06/10 13:39:46;;;;;;;7.28;2.97;;;;;;;;;;5025736;28;20184;-72
2022/06/10 13:42:15;;;;;;;6.30;2.28;;;;;;;;;;5022078;28;22195;-72
2022/06/10 13:44:44;;;;;;;3.92;1.80;;;;;;;;;;5023789;28;20640;-72
2022/06/10 13:47:24;;;;;;;7.38;2.20;;;;;;;;;;5027596;28;20299;-72
2022/06/10 13:52:36;;;;;;;4.97;2.17;;;;;;;;;;5021645;28;20208;-72
2022/06/10 13:55:20;;;;;;;7.60;2.28;;;;;;;;;;5023677;28;20202;-72
2022/06/10 13:57:53;;;;;;;5.13;2.28;;;;;;;;;;5022590;28;20178;-72
2022/06/10 14:00:20;;;;;;;5.07;2.30;;;;;;;;;;5027382;28;20182;-72
2022/06/10 14:02:45;;;;;;;5.05;2.08;;;;;;;;;;5024045;28;20186;-72
2022/06/10 14:05:14;;;;;;;5.80;2.20;;;;;;;;;;5021223;28;20209;-72
2022/06/10 14:07:41;;;;;;;5.35;2.50;;;;;;;;;;5023720;28;20939;-72
2022/06/10 14:10:15;;;;;;;5.75;2.30;;;;;;;;;;5021836;28;20178;-72
2022/06/10 14:12:51;;;;;;;7.25;2.28;;;;;;;;;;5030232;28;22130;-72
2022/06/10 14:15:17;;;;;;;5.60;2.40;;;;;;;;;;5022668;28;20558;-72
2022/06/10 14:17:49;;;;;;;5.70;2.50;;;;;;;;;;5022169;28;20223;-72
2022/06/10 14:20:16;;;;;;;8.38;2.55;;;;;;;;;;5024557;28;20300;-72
2022/06/10 14:22:44;;;;;;;7.28;3.60;;;;;;;;;;5026015;28;20239;-72
2022/06/10 14:25:13;;;;;;;6.45;2.40;;;;;;;;;;5021929;28;21895;-72
2022/06/10 14:27:39;;;;;;;5.93;2.20;;;;;;;;;;5026160;28;20572;-72
2022/06/10 14:30:34;;;;;;;9.45;2.97;;;;;;;;;;5028479;28;20704;-72
2022/06/10 14:33:00;;;;;;;7.85;2.00;;;;;;;;;;5018043;28;20187;-72
2022/06/10 14:35:32;;;;;;;9.13;3.28;;;;;;;;;;5022200;28;20241;-72
2022/06/10 14:38:03;;;;;;;6.97;2.75;;;;;;;;;;5021175;28;20178;-72
2022/06/10 14:40:29;;;;;;;7.55;2.75;;;;;;;;;;5021722;28;21000;-72
2022/06/10 14:43:12;;;;;;;5.88;2.90;;;;;;;;;;5025197;28;20186;-72
2022/06/10 14:45:39;;;;;;;7.38;2.50;;;;;;;;;;5027805;28;20314;-72
2022/06/10 14:48:04;;;;;;;8.18;3.63;;;;;;;;;;5022133;28;20247;-72
2022/06/10 14:50:30;;;;;;;6.00;2.28;;;;;;;;;;5023929;28;20267;-72
2022/06/10 14:52:55;;;;;;;5.30;2.70;;;;;;;;;;5023607;28;20200;-72
2022/06/10 14:55:22;;;;;;;7.83;2.40;;;;;;;;;;5020318;28;20206;-71
2022/06/10 14:57:48;;;;;;;6.03;2.50;;;;;;;;;;5022049;28;20445;-72
2022/06/10 15:00:17;;;;;;;6.18;2.35;;;;;;;;;;5020686;28;20774;-71
2022/06/10 15:02:43;;;;;;;7.32;2.50;;;;;;;;;;5021226;28;20248;-72
2022/06/10 15:07:52;;;;;;;4.93;2.20;;;;;;;;;;5026999;28;21495;-71
2022/06/10 15:10:17;;;;;;;5.75;2.30;;;;;;;;;;5021713;28;20473;-73
2022/06/10 15:12:45;;;;;;;6.67;2.50;;;;;;;;;;5025664;28;20193;-72